Time;durP1;ratioP1;P1;durP2;ratioP2;P2;SDS_P1;SDS_P2;PMS_P1;PMS_P2;Temp;Humidity;BMP_temperature;BMP_pressure;BME280_temperature;BME280_humidity;BME280_pressure;Samples;Min_cycle;Max_cycle;Signal;HPM_P1;HPM_P2
2023/01/26 00:00:25;;;;;;;20.73;9.07;;;2.60;99.90;;;;;;5090691;28;20040;-74
2023/01/26 00:02:51;;;;;;;23.57;9.80;;;2.60;99.90;;;;;;5091633;28;20028;-73
2023/01/26 00:05:16;;;;;;;19.13;8.50;;;2.60;99.90;;;;;;5091034;28;20031;-74
2023/01/26 00:07:44;;;;;;;18.60;8.80;;;2.60;99.90;;;;;;5091638;28;20385;-74
2023/01/26 00:10:11;;;;;;;20.63;8.77;;;2.60;99.90;;;;;;5090985;28;20123;-78
2023/01/26 00:12:37;;;;;;;17.97;8.63;;;2.70;99.90;;;;;;5091560;28;20032;-75
2023/01/26 00:15:02;;;;;;;21.00;8.77;;;2.70;99.90;;;;;;5092706;28;20077;-76
2023/01/26 00:17:28;;;;;;;19.90;8.97;;;2.70;99.90;;;;;;5091824;28;20023;-76
2023/01/26 00:19:56;;;;;;;18.83;9.00;;;2.60;99.90;;;;;;5109002;28;20485;-75
2023/01/26 00:22:23;;;;;;;17.63;7.40;;;2.60;99.90;;;;;;5094275;28;20046;-75
2023/01/26 00:24:48;;;;;;;18.53;8.63;;;2.60;99.90;;;;;;5094864;28;20490;-75
2023/01/26 00:27:14;;;;;;;21.73;8.97;;;2.60;99.90;;;;;;5094537;28;20040;-76
2023/01/26 00:29:39;;;;;;;19.10;8.83;;;2.60;99.90;;;;;;5095176;28;20024;-75
2023/01/26 00:32:05;;;;;;;22.73;9.53;;;2.60;99.90;;;;;;5112932;28;20024;-75
2023/01/26 00:34:31;;;;;;;18.27;9.40;;;2.60;99.90;;;;;;5112373;28;20019;-75
2023/01/26 00:36:56;;;;;;;19.17;8.90;;;2.60;99.90;;;;;;5094472;28;20449;-76
2023/01/26 00:39:22;;;;;;;20.00;8.80;;;2.60;99.90;;;;;;5094361;28;20039;-76
2023/01/26 00:42:05;;;;;;;19.53;9.20;;;2.60;99.90;;;;;;5095088;28;20475;-76
2023/01/26 00:44:31;;;;;;;21.37;9.83;;;2.60;99.90;;;;;;5112162;28;20073;-76
2023/01/26 00:46:57;;;;;;;20.70;9.20;;;2.60;99.90;;;;;;5094652;28;20024;-76
2023/01/26 00:49:23;;;;;;;23.33;9.50;;;2.50;99.90;;;;;;5112395;28;20077;-76
2023/01/26 00:51:48;;;;;;;26.53;9.93;;;2.50;99.90;;;;;;5094601;28;20476;-76
2023/01/26 00:54:14;;;;;;;20.47;8.80;;;2.50;99.90;;;;;;5112019;28;20028;-77
2023/01/26 00:56:40;;;;;;;21.13;10.10;;;2.60;99.90;;;;;;5094953;28;20453;-77
2023/01/26 00:59:05;;;;;;;23.13;10.30;;;2.60;99.90;;;;;;5094831;28;20461;-76
2023/01/26 01:01:31;;;;;;;23.03;9.30;;;2.60;99.90;;;;;;5112766;28;20092;-77
2023/01/26 01:03:57;;;;;;;21.03;9.10;;;2.60;99.90;;;;;;5094744;28;20054;-75
2023/01/26 01:06:22;;;;;;;21.03;8.63;;;2.60;99.90;;;;;;5114648;28;20051;-76
2023/01/26 01:08:48;;;;;;;22.83;9.37;;;2.60;99.90;;;;;;5098396;28;20491;-76
2023/01/26 01:11:14;;;;;;;20.43;8.80;;;2.60;99.90;;;;;;5115964;28;20049;-80
2023/01/26 01:13:40;;;;;;;21.53;9.27;;;2.60;99.90;;;;;;5098045;28;20024;-76
2023/01/26 01:16:11;;;;;;;19.70;9.13;;;2.60;99.90;;;;;;5116083;28;20435;-75
2023/01/26 01:18:37;;;;;;;19.48;8.68;;;2.60;99.90;;;;;;5115599;28;20112;-76
2023/01/26 01:21:07;;;;;;;21.17;9.27;;;2.60;99.90;;;;;;5098176;28;20031;-75
2023/01/26 01:23:33;;;;;;;21.60;8.87;;;2.60;99.90;;;;;;5097351;28;20498;-75
2023/01/26 01:26:00;;;;;;;20.23;9.17;;;2.60;99.90;;;;;;5097998;28;20028;-75
2023/01/26 01:28:25;;;;;;;21.00;8.83;;;2.60;99.90;;;;;;5115679;28;20024;-75
2023/01/26 01:30:51;;;;;;;21.67;8.77;;;2.60;99.90;;;;;;5098092;28;20031;-76
2023/01/26 01:33:17;;;;;;;20.90;9.57;;;2.60;99.90;;;;;;5115668;28;20030;-76
2023/01/26 01:35:42;;;;;;;21.77;9.60;;;2.50;99.90;;;;;;5097767;28;20066;-76
2023/01/26 01:38:08;;;;;;;23.23;9.70;;;2.60;99.90;;;;;;5097904;28;20028;-75
2023/01/26 01:40:34;;;;;;;20.80;9.50;;;2.50;99.90;;;;;;5097263;28;20023;-75
2023/01/26 01:42:59;;;;;;;20.80;9.40;;;2.60;99.90;;;;;;5097823;28;20023;-75
2023/01/26 01:45:25;;;;;;;24.57;9.83;;;2.60;99.90;;;;;;5097281;28;20024;-75
2023/01/26 01:47:56;;;;;;;23.93;10.20;;;2.60;99.90;;;;;;5097917;28;20376;-74
2023/01/26 01:50:23;;;;;;;22.93;9.20;;;2.50;99.90;;;;;;5097081;28;20396;-75
2023/01/26 01:52:50;;;;;;;27.10;10.53;;;2.60;99.90;;;;;;5097299;28;20031;-76
2023/01/26 01:55:16;;;;;;;23.90;9.67;;;2.60;99.90;;;;;;5096967;28;20077;-81
2023/01/26 01:57:50;;;;;;;29.90;10.03;;;2.50;99.90;;;;;;5097306;28;20023;-76
2023/01/26 02:00:21;;;;;;;27.27;11.20;;;2.50;99.90;;;;;;5097179;28;20043;-76
2023/01/26 02:03:13;;;;;;;25.45;9.77;;;2.50;99.90;;;;;;5115835;28;20026;-76
2023/01/26 02:05:58;;;;;;;25.55;10.60;;;2.50;99.90;;;;;;5097179;28;20031;-76
2023/01/26 02:08:35;;;;;;;22.53;9.80;;;2.50;99.90;;;;;;5097213;28;20034;-76
2023/01/26 02:11:06;;;;;;;29.77;10.87;;;2.50;99.90;;;;;;5097375;28;20119;-76
2023/01/26 02:13:33;;;;;;;26.08;9.55;;;2.50;99.90;;;;;;5114756;28;20024;-76
2023/01/26 02:15:59;;;;;;;23.27;9.90;;;2.50;99.90;;;;;;5115299;28;20027;-76
2023/01/26 02:18:25;;;;;;;24.03;10.43;;;2.50;99.90;;;;;;5096370;28;20098;-76
2023/01/26 02:21:03;;;;;;;22.83;10.27;;;2.50;99.90;;;;;;5097214;28;20063;-76
2023/01/26 02:23:47;;;;;;;25.73;10.43;;;2.50;99.90;;;;;;5096246;28;20024;-76
2023/01/26 02:26:21;;;;;;;26.27;9.63;;;2.50;99.90;;;;;;5114638;28;20491;-76
2023/01/26 02:28:47;;;;;;;26.37;10.40;;;2.60;99.90;;;;;;5115075;28;20487;-76
2023/01/26 02:31:14;;;;;;;26.97;10.37;;;2.50;99.90;;;;;;5096605;28;20039;-75
2023/01/26 02:33:41;;;;;;;26.07;9.93;;;2.50;99.90;;;;;;5095896;28;20368;-75
2023/01/26 02:36:09;;;;;;;26.13;10.30;;;2.60;99.90;;;;;;5096475;28;20027;-75
2023/01/26 02:38:42;;;;;;;24.00;9.87;;;2.50;99.90;;;;;;5095634;28;20081;-74
2023/01/26 02:41:12;;;;;;;22.77;10.00;;;2.50;99.90;;;;;;5096319;28;20076;-75
2023/01/26 02:43:38;;;;;;;23.57;9.90;;;2.50;99.90;;;;;;5095542;28;20268;-75
2023/01/26 02:46:04;;;;;;;24.70;9.20;;;2.60;99.90;;;;;;5096375;28;20057;-75
2023/01/26 02:51:13;;;;;;;24.13;10.10;;;2.50;99.90;;;;;;5096662;28;20039;-75
2023/01/26 02:53:39;;;;;;;25.50;10.00;;;2.50;99.90;;;;;;5075743;28;20028;-76
2023/01/26 02:56:05;;;;;;;24.53;10.10;;;2.50;99.90;;;;;;5094395;28;20469;-75
2023/01/26 02:58:30;;;;;;;28.30;11.03;;;2.50;99.90;;;;;;5093473;28;20115;-77
2023/01/26 03:00:56;;;;;;;22.47;9.50;;;2.60;99.90;;;;;;5076085;28;20105;-76
2023/01/26 03:03:25;;;;;;;24.10;10.10;;;2.50;99.90;;;;;;5093523;28;20062;-76
2023/01/26 03:05:51;;;;;;;26.27;9.60;;;2.50;99.90;;;;;;5075903;28;20420;-76
2023/01/26 03:08:17;;;;;;;24.67;9.87;;;2.50;99.90;;;;;;5075901;28;20077;-77
2023/01/26 03:10:46;;;;;;;20.73;9.33;;;2.60;99.90;;;;;;5075286;28;20035;-75
2023/01/26 03:13:11;;;;;;;24.80;9.10;;;2.60;99.90;;;;;;5094058;28;20020;-76
2023/01/26 03:15:46;;;;;;;22.07;9.17;;;2.50;99.90;;;;;;5075313;28;20027;-75
2023/01/26 03:29:16;;;;;;;28.53;10.37;;;2.50;99.90;;;;;;5098825;28;20499;-76
2023/01/26 03:31:42;;;;;;;25.30;9.83;;;2.50;99.90;;;;;;5083027;28;20031;-76
2023/01/26 03:34:07;;;;;;;24.53;10.40;;;2.50;99.90;;;;;;5095192;28;20027;-76
2023/01/26 03:36:33;;;;;;;24.73;9.93;;;2.50;99.90;;;;;;5092588;28;20020;-76
2023/01/26 03:38:59;;;;;;;26.53;10.50;;;2.50;99.90;;;;;;5075071;28;20024;-75
2023/01/26 03:57:49;;;;;;;29.50;11.77;;;2.50;99.90;;;;;;5113070;28;20077;-76
2023/01/26 04:00:15;;;;;;;31.77;12.00;;;2.50;99.90;;;;;;5093433;28;20032;-76
2023/01/26 04:08:21;;;;;;;32.07;12.70;;;2.40;99.90;;;;;;5092864;28;20027;-76
2023/01/26 04:10:50;;;;;;;38.20;13.77;;;2.30;99.90;;;;;;5113408;28;20110;-75
2023/01/26 04:21:30;;;;;;;33.80;13.30;;;2.30;99.90;;;;;;5092950;28;20043;-76
2023/01/26 04:23:56;;;;;;;36.77;13.07;;;2.30;99.90;;;;;;5095320;28;20154;-76
2023/01/26 04:26:33;;;;;;;36.53;13.37;;;2.30;99.90;;;;;;5089250;28;20031;-80
2023/01/26 04:29:03;;;;;;;34.07;13.00;;;2.30;99.90;;;;;;5089749;28;20492;-76
2023/01/26 04:31:29;;;;;;;37.90;12.93;;;2.30;99.90;;;;;;5091008;28;20172;-76
2023/01/26 04:33:55;;;;;;;38.07;12.87;;;2.30;99.90;;;;;;5099504;28;20366;-76
2023/01/26 04:36:20;;;;;;;36.60;13.00;;;2.30;99.90;;;;;;5102608;28;20035;-79
2023/01/26 04:38:46;;;;;;;40.03;12.67;;;2.30;99.90;;;;;;5092319;28;20039;-75
2023/01/26 04:41:12;;;;;;;38.13;13.13;;;2.30;99.90;;;;;;5076659;28;20077;-74
2023/01/26 04:43:37;;;;;;;36.33;13.80;;;2.30;99.90;;;;;;5078204;28;20032;-75
2023/01/26 04:46:06;;;;;;;35.60;13.00;;;2.30;99.90;;;;;;5078793;28;20381;-75
2023/01/26 04:48:32;;;;;;;33.53;13.30;;;2.30;99.90;;;;;;5077934;28;20032;-75
2023/01/26 04:51:00;;;;;;;37.77;13.63;;;2.40;99.90;;;;;;5112063;28;20050;-74
2023/01/26 04:53:26;;;;;;;37.37;13.27;;;2.40;99.90;;;;;;5098284;28;20066;-74
2023/01/26 04:55:52;;;;;;;30.73;12.43;;;2.40;99.90;;;;;;5098429;28;20076;-74
2023/01/26 04:58:18;;;;;;;32.17;11.87;;;2.40;99.90;;;;;;5098518;28;20028;-74
2023/01/26 05:00:48;;;;;;;30.33;11.13;;;2.40;99.90;;;;;;5116318;28;20038;-74
2023/01/26 05:03:14;;;;;;;36.17;12.97;;;2.30;99.90;;;;;;5081093;28;20020;-74
2023/01/26 05:05:40;;;;;;;30.37;10.80;;;2.30;99.90;;;;;;5110916;28;20020;-74
2023/01/26 05:08:06;;;;;;;29.43;11.03;;;2.30;99.90;;;;;;5078018;28;20028;-75
2023/01/26 05:10:31;;;;;;;27.53;10.50;;;2.30;99.90;;;;;;5089408;28;20066;-74
2023/01/26 05:12:57;;;;;;;29.60;10.77;;;2.30;99.90;;;;;;5098157;28;20028;-76
2023/01/26 05:15:23;;;;;;;28.57;10.10;;;2.20;99.90;;;;;;5115891;28;20032;-78
2023/01/26 05:17:49;;;;;;;27.10;9.60;;;2.20;99.90;;;;;;5098483;28;20027;-76
2023/01/26 05:20:15;;;;;;;24.93;9.57;;;2.20;99.90;;;;;;5093041;28;21372;-76
2023/01/26 05:22:40;;;;;;;24.17;9.43;;;2.10;99.90;;;;;;5102262;28;20119;-76
2023/01/26 05:25:07;;;;;;;22.77;9.47;;;2.10;99.90;;;;;;5094419;28;20165;-76
2023/01/26 05:27:32;;;;;;;24.27;9.33;;;2.10;99.90;;;;;;5097751;28;20030;-76
2023/01/26 05:30:00;;;;;;;21.57;8.43;;;2.10;99.90;;;;;;5097374;28;20027;-76
2023/01/26 05:32:30;;;;;;;21.63;8.53;;;2.10;99.90;;;;;;5097075;28;20024;-77
2023/01/26 05:34:57;;;;;;;23.77;9.13;;;2.10;99.90;;;;;;5097478;28;20024;-75
2023/01/26 05:37:26;;;;;;;21.80;9.33;;;2.00;99.90;;;;;;5080499;28;20052;-79
2023/01/26 05:39:52;;;;;;;25.93;9.57;;;2.00;99.90;;;;;;5115745;28;20023;-76
2023/01/26 05:42:18;;;;;;;21.13;8.67;;;2.00;99.90;;;;;;5116007;28;20069;-76
2023/01/26 05:44:43;;;;;;;24.13;9.33;;;2.10;99.90;;;;;;5097024;28;20024;-76
2023/01/26 05:47:09;;;;;;;27.73;9.53;;;2.10;99.90;;;;;;5097656;28;20027;-76
2023/01/26 05:49:37;;;;;;;23.50;9.30;;;2.20;99.90;;;;;;5115334;28;20042;-75
2023/01/26 05:52:17;;;;;;;24.27;10.17;;;2.20;99.90;;;;;;5107312;28;20044;-76
2023/01/26 05:54:42;;;;;;;23.43;9.40;;;2.10;99.90;;;;;;5108292;28;20054;-77
2023/01/26 05:57:09;;;;;;;22.47;9.17;;;2.10;99.90;;;;;;5093843;28;20043;-76
2023/01/26 05:59:34;;;;;;;26.53;9.63;;;2.10;99.90;;;;;;5094578;28;20077;-75
2023/01/26 06:02:00;;;;;;;25.70;9.73;;;2.10;99.90;;;;;;5077032;28;20028;-76
2023/01/26 06:04:26;;;;;;;22.37;8.60;;;2.10;99.90;;;;;;5077062;28;20120;-77
2023/01/26 06:06:53;;;;;;;22.83;9.07;;;2.00;99.90;;;;;;5077011;28;20027;-76
2023/01/26 06:09:19;;;;;;;23.60;10.23;;;2.10;99.90;;;;;;5093135;28;20032;-76
2023/01/26 06:11:45;;;;;;;26.40;10.40;;;2.00;99.90;;;;;;5094451;28;20034;-78
2023/01/26 06:14:10;;;;;;;28.83;10.43;;;2.00;99.90;;;;;;5085754;28;20061;-76
2023/01/26 06:16:36;;;;;;;28.73;10.80;;;2.00;99.90;;;;;;5096822;28;20206;-76
2023/01/26 06:19:02;;;;;;;28.83;10.53;;;2.00;99.90;;;;;;5098742;28;20444;-73
2023/01/26 06:21:27;;;;;;;29.27;11.27;;;2.00;99.90;;;;;;5110542;28;20111;-74
2023/01/26 06:23:53;;;;;;;32.93;11.67;;;2.10;99.90;;;;;;5082627;28;20015;-74
2023/01/26 06:26:19;;;;;;;27.40;11.00;;;2.00;99.90;;;;;;5114479;28;20118;-74
2023/01/26 06:28:44;;;;;;;26.47;10.27;;;2.00;99.90;;;;;;5081954;28;20714;-75
2023/01/26 06:31:10;;;;;;;26.67;10.30;;;2.00;99.90;;;;;;5092940;28;20076;-75
2023/01/26 06:33:37;;;;;;;27.87;11.63;;;2.00;99.90;;;;;;5109734;28;20016;-75
2023/01/26 06:36:05;;;;;;;26.20;10.63;;;2.00;99.90;;;;;;5101857;28;20027;-75
2023/01/26 06:38:31;;;;;;;26.87;10.17;;;2.00;99.90;;;;;;5095673;28;20027;-74
2023/01/26 06:41:01;;;;;;;28.30;10.77;;;2.00;99.90;;;;;;5080505;28;20035;-73
2023/01/26 06:43:29;;;;;;;29.67;10.80;;;2.10;99.90;;;;;;5091652;28;20119;-75
2023/01/26 06:45:58;;;;;;;30.13;11.60;;;2.10;99.90;;;;;;5082338;28;20020;-74
2023/01/26 06:48:28;;;;;;;28.83;11.43;;;2.10;99.90;;;;;;5084814;28;20039;-76
2023/01/26 06:51:16;;;;;;;27.93;11.77;;;2.00;99.90;;;;;;5076038;28;20035;-74
2023/01/26 06:53:46;;;;;;;28.53;11.67;;;2.00;99.90;;;;;;5080573;28;20016;-74
2023/01/26 06:56:12;;;;;;;31.40;11.37;;;2.00;99.90;;;;;;5095790;28;20028;-74
2023/01/26 06:58:37;;;;;;;28.70;10.90;;;2.00;99.90;;;;;;5095775;28;20110;-74
2023/01/26 07:01:03;;;;;;;34.53;12.37;;;1.90;99.90;;;;;;5114557;28;20024;-74
2023/01/26 07:03:29;;;;;;;28.93;10.67;;;1.90;99.90;;;;;;5094648;28;20035;-74
2023/01/26 07:05:55;;;;;;;29.27;11.00;;;2.00;99.90;;;;;;5096086;28;20028;-73
2023/01/26 07:08:20;;;;;;;28.20;11.23;;;2.00;99.90;;;;;;5114175;28;20024;-75
2023/01/26 07:10:46;;;;;;;29.63;11.07;;;2.00;99.90;;;;;;5081659;28;20032;-75
2023/01/26 07:13:11;;;;;;;27.60;10.23;;;2.00;99.90;;;;;;5093743;28;20031;-75
2023/01/26 07:15:37;;;;;;;29.73;10.80;;;2.00;99.90;;;;;;5079203;28;20024;-75
2023/01/26 07:18:03;;;;;;;30.47;10.30;;;1.90;99.90;;;;;;5095598;28;20023;-75
2023/01/26 07:20:28;;;;;;;25.77;10.17;;;1.90;99.90;;;;;;5094697;28;20058;-76
2023/01/26 07:22:54;;;;;;;25.80;10.40;;;1.90;99.90;;;;;;5095702;28;20118;-75
2023/01/26 07:25:19;;;;;;;29.37;10.83;;;2.00;99.90;;;;;;5112494;28;20028;-75
2023/01/26 07:27:45;;;;;;;28.43;10.57;;;1.90;99.90;;;;;;5074910;28;20186;-76
2023/01/26 07:30:14;;;;;;;27.67;9.87;;;1.90;99.90;;;;;;5093378;28;20032;-75
2023/01/26 07:32:40;;;;;;;25.17;10.43;;;1.90;99.90;;;;;;5074557;28;20067;-75
2023/01/26 07:35:07;;;;;;;29.20;10.67;;;2.00;99.90;;;;;;5091820;28;20023;-75
2023/01/26 07:37:32;;;;;;;25.60;10.60;;;1.90;99.90;;;;;;5095887;28;20098;-76
2023/01/26 07:39:58;;;;;;;31.03;10.70;;;1.90;99.90;;;;;;5087459;28;20115;-75
2023/01/26 07:42:23;;;;;;;28.43;10.53;;;1.90;99.90;;;;;;5084994;28;20115;-77
2023/01/26 07:44:49;;;;;;;31.90;11.40;;;1.90;99.90;;;;;;5080044;28;20035;-76
2023/01/26 07:47:15;;;;;;;31.87;10.93;;;2.00;99.90;;;;;;5091439;28;20027;-76
2023/01/26 07:49:41;;;;;;;26.57;9.50;;;2.00;99.90;;;;;;5074244;28;20392;-76
2023/01/26 07:52:08;;;;;;;23.30;9.37;;;1.90;99.90;;;;;;5092868;28;20028;-76
2023/01/26 07:54:33;;;;;;;25.77;10.33;;;1.90;99.90;;;;;;5086168;28;20023;-77
2023/01/26 07:56:59;;;;;;;27.23;10.40;;;1.90;99.90;;;;;;5094929;28;20020;-76
2023/01/26 07:59:25;;;;;;;26.70;9.43;;;1.90;99.90;;;;;;5110031;28;20115;-78
2023/01/26 08:01:51;;;;;;;29.83;10.30;;;1.90;99.90;;;;;;5074784;28;20077;-76
2023/01/26 08:04:16;;;;;;;28.30;9.27;;;1.90;99.90;;;;;;5092854;28;20073;-76
2023/01/26 08:06:42;;;;;;;24.33;9.80;;;1.90;99.90;;;;;;5074025;28;20040;-76
2023/01/26 08:09:08;;;;;;;26.03;10.33;;;1.90;99.90;;;;;;5091572;28;20035;-76
2023/01/26 08:11:33;;;;;;;28.33;9.57;;;2.00;99.90;;;;;;5095812;28;20514;-76
2023/01/26 08:13:59;;;;;;;28.13;10.10;;;2.00;99.90;;;;;;5086911;28;20024;-75
2023/01/26 08:16:25;;;;;;;27.77;10.20;;;2.00;99.90;;;;;;5085370;28;20070;-81
2023/01/26 08:18:50;;;;;;;30.30;10.47;;;2.00;99.90;;;;;;5079751;28;20048;-76
2023/01/26 08:21:18;;;;;;;28.67;10.77;;;2.10;99.90;;;;;;5092639;28;20103;-76
2023/01/26 08:23:50;;;;;;;28.23;9.90;;;2.10;99.90;;;;;;5074425;28;20059;-76
2023/01/26 08:26:17;;;;;;;26.80;10.40;;;2.10;99.90;;;;;;5106022;28;20051;-77
2023/01/26 08:28:43;;;;;;;26.83;10.43;;;2.10;99.90;;;;;;5094678;28;20048;-76
2023/01/26 08:31:12;;;;;;;32.63;10.43;;;2.10;99.90;;;;;;5094637;28;20028;-74
2023/01/26 08:33:40;;;;;;;26.90;9.97;;;2.10;99.90;;;;;;5100137;28;20028;-76
2023/01/26 08:36:09;;;;;;;27.40;10.60;;;2.10;99.90;;;;;;5100970;28;20023;-76
2023/01/26 08:38:35;;;;;;;32.10;11.67;;;2.00;99.90;;;;;;5094343;28;20076;-76
2023/01/26 08:41:01;;;;;;;29.47;11.23;;;2.10;99.90;;;;;;5106551;28;20413;-75
2023/01/26 08:43:28;;;;;;;27.83;10.60;;;2.10;99.90;;;;;;5094311;28;20034;-79
2023/01/26 08:45:53;;;;;;;28.30;11.10;;;2.10;99.90;;;;;;5111766;28;20026;-76
2023/01/26 08:48:20;;;;;;;26.87;10.20;;;2.10;99.90;;;;;;5094659;28;20028;-76
2023/01/26 08:50:45;;;;;;;27.83;11.10;;;2.10;99.90;;;;;;5094144;28;20027;-76
2023/01/26 08:53:11;;;;;;;28.70;10.33;;;2.10;99.90;;;;;;5094560;28;20030;-76
2023/01/26 08:55:37;;;;;;;27.93;10.83;;;2.00;99.90;;;;;;5093811;28;20024;-76
2023/01/26 08:58:03;;;;;;;24.83;10.37;;;2.00;99.90;;;;;;5112733;28;20399;-76
2023/01/26 09:00:29;;;;;;;30.77;10.60;;;2.00;99.90;;;;;;5106776;28;20031;-77
2023/01/26 09:03:03;;;;;;;27.07;11.07;;;2.00;99.90;;;;;;5106142;28;20023;-76
2023/01/26 09:05:32;;;;;;;26.83;9.90;;;2.00;99.90;;;;;;5110156;28;20038;-77
2023/01/26 09:07:57;;;;;;;29.80;10.77;;;2.00;99.90;;;;;;5090189;28;20047;-75
2023/01/26 09:10:24;;;;;;;28.00;10.47;;;2.00;99.90;;;;;;5111832;28;20051;-76
2023/01/26 09:12:49;;;;;;;25.07;10.37;;;2.10;99.90;;;;;;5081096;28;20028;-75
2023/01/26 09:15:15;;;;;;;24.13;9.60;;;2.10;99.90;;;;;;5075237;28;20020;-76
2023/01/26 09:17:41;;;;;;;26.40;10.27;;;2.10;99.90;;;;;;5082982;28;20081;-77
2023/01/26 09:20:11;;;;;;;26.10;10.07;;;2.10;99.90;;;;;;5093431;28;20134;-76
2023/01/26 09:22:36;;;;;;;26.57;10.33;;;2.10;99.90;;;;;;5082176;28;20038;-78
2023/01/26 09:25:02;;;;;;;23.70;10.17;;;2.20;99.90;;;;;;5083684;28;20027;-80
2023/01/26 09:27:28;;;;;;;24.53;9.43;;;2.20;99.90;;;;;;5116249;28;20031;-85
2023/01/26 09:29:54;;;;;;;22.77;8.77;;;2.20;99.90;;;;;;5117601;28;20028;-81
2023/01/26 09:32:23;;;;;;;20.37;8.53;;;2.20;99.90;;;;;;5117815;28;20499;-79
2023/01/26 09:34:48;;;;;;;25.33;9.53;;;2.30;99.90;;;;;;5098629;28;20181;-81
2023/01/26 09:37:14;;;;;;;29.47;10.37;;;2.20;99.90;;;;;;5087881;28;20469;-81
2023/01/26 09:39:40;;;;;;;26.33;9.67;;;2.20;99.90;;;;;;5082187;28;20035;-80
2023/01/26 09:42:25;;;;;;;26.30;9.70;;;2.20;99.90;;;;;;5088545;28;20020;-80
2023/01/26 09:45:13;;;;;;;26.53;10.33;;;2.20;99.90;;;;;;5099009;28;20020;-79
2023/01/26 09:48:11;;;;;;;23.33;9.17;;;2.20;99.90;;;;;;5082872;28;20020;-82
2023/01/26 09:50:49;;;;;;;22.20;9.10;;;2.10;99.90;;;;;;5084198;28;20028;-82
2023/01/26 09:53:22;;;;;;;22.70;9.20;;;2.20;99.90;;;;;;5115005;28;20055;-83
2023/01/26 09:55:48;;;;;;;23.00;8.73;;;2.10;99.90;;;;;;5093096;28;20174;-80
2023/01/26 09:58:23;;;;;;;23.97;9.43;;;2.20;99.90;;;;;;5116104;28;20468;-80
2023/01/26 10:00:56;;;;;;;19.90;8.50;;;2.20;99.90;;;;;;5090535;28;20039;-79
2023/01/26 10:03:27;;;;;;;22.70;9.17;;;2.20;99.90;;;;;;5116223;28;20431;-80
2023/01/26 10:05:56;;;;;;;19.52;7.63;;;2.30;99.90;;;;;;5097441;28;20028;-82
2023/01/26 10:08:22;;;;;;;15.63;6.67;;;2.20;99.90;;;;;;5089869;28;20152;-81
2023/01/26 10:10:54;;;;;;;15.57;7.10;;;2.20;99.90;;;;;;5107253;28;20032;-82
2023/01/26 10:13:22;;;;;;;10.03;5.07;;;2.20;99.90;;;;;;5095745;28;20024;-81
2023/01/26 10:15:53;;;;;;;13.53;5.73;;;2.20;99.90;;;;;;5090253;28;20078;-83
2023/01/26 10:18:41;;;;;;;12.07;5.55;;;2.20;99.90;;;;;;5087236;28;20056;-81
2023/01/26 10:21:09;;;;;;;11.33;5.27;;;2.20;99.90;;;;;;5090169;28;20040;-81
2023/01/26 10:23:35;;;;;;;13.10;6.37;;;2.20;99.90;;;;;;5097745;28;20038;-82
2023/01/26 10:26:12;;;;;;;17.70;6.97;;;2.20;99.90;;;;;;5093194;28;20032;-82
2023/01/26 10:28:40;;;;;;;16.07;6.50;;;2.10;99.90;;;;;;5094250;28;20118;-79
2023/01/26 10:31:13;;;;;;;13.27;6.57;;;2.10;99.90;;;;;;5097772;28;20024;-82
2023/01/26 10:33:50;;;;;;;14.90;6.57;;;2.00;99.90;;;;;;5093884;28;20028;-81
2023/01/26 10:36:15;;;;;;;16.20;6.83;;;2.10;99.90;;;;;;5098108;28;20457;-82
2023/01/26 10:38:43;;;;;;;19.37;7.10;;;2.10;99.90;;;;;;5096173;28;20031;-82
2023/01/26 10:41:17;;;;;;;13.10;5.87;;;2.10;99.90;;;;;;5097080;28;20023;-82
2023/01/26 10:44:01;;;;;;;12.10;5.67;;;2.10;99.90;;;;;;5095187;28;20055;-83
2023/01/26 10:46:34;;;;;;;11.27;4.60;;;2.10;99.90;;;;;;5094316;28;20130;-82
2023/01/26 10:49:15;;;;;;;12.60;4.70;;;2.00;99.90;;;;;;5110399;28;20028;-81
2023/01/26 10:51:46;;;;;;;10.83;5.13;;;2.10;99.90;;;;;;5087414;28;20118;-82
2023/01/26 10:54:26;;;;;;;10.02;5.38;;;2.00;99.90;;;;;;5078084;28;20032;-80
2023/01/26 10:56:56;;;;;;;11.67;5.53;;;2.00;99.90;;;;;;5098769;28;20481;-79
2023/01/26 10:59:33;;;;;;;11.20;5.07;;;2.00;99.90;;;;;;5084675;28;20042;-80
2023/01/26 11:02:20;;;;;;;12.37;5.67;;;1.90;99.90;;;;;;5107425;28;20027;-80
2023/01/26 11:05:07;;;;;;;10.33;4.37;;;2.00;99.90;;;;;;5092428;28;20861;-81
2023/01/26 11:07:34;;;;;;;9.77;4.60;;;2.00;99.90;;;;;;5085915;28;20028;-84
2023/01/26 11:10:36;;;;;;;12.60;4.00;;;2.00;99.90;;;;;;5096859;28;20069;-81
2023/01/26 11:13:12;;;;;;;9.48;4.57;;;2.00;99.90;;;;;;5091059;28;20026;-81
2023/01/26 11:15:41;;;;;;;9.80;4.43;;;2.00;99.90;;;;;;5093824;28;20028;-80
2023/01/26 11:18:19;;;;;;;6.63;3.60;;;2.00;99.90;;;;;;5096614;28;20028;-81
2023/01/26 11:21:10;;;;;;;7.67;3.30;;;2.00;99.90;;;;;;5095183;28;20036;-79
2023/01/26 11:23:40;;;;;;;6.73;3.47;;;1.90;99.90;;;;;;5114092;28;20020;-80
2023/01/26 11:26:12;;;;;;;7.17;2.87;;;2.00;99.90;;;;;;5088925;28;20106;-78
2023/01/26 11:28:53;;;;;;;7.90;3.78;;;2.00;99.90;;;;;;5086710;28;20019;-80
2023/01/26 11:31:36;;;;;;;8.20;3.80;;;2.00;99.90;;;;;;5089785;28;20028;-80
2023/01/26 11:34:30;;;;;;;7.37;3.33;;;2.00;99.90;;;;;;5111336;28;20012;-83
2023/01/26 11:37:14;;;;;;;7.93;3.90;;;2.00;99.90;;;;;;5062421;28;20036;-81
2023/01/26 11:39:55;;;;;;;8.37;4.30;;;2.00;99.90;;;;;;5095280;28;20031;-83
2023/01/26 11:42:48;;;;;;;9.20;4.40;;;2.10;99.90;;;;;;5096759;28;20020;-84
2023/01/26 11:45:13;;;;;;;9.67;4.47;;;2.10;99.90;;;;;;5077293;28;20020;-80
2023/01/26 11:48:01;;;;;;;7.83;3.70;;;2.10;99.90;;;;;;5091075;28;20026;-81
2023/01/26 11:50:35;;;;;;;6.47;3.57;;;2.00;99.90;;;;;;5099949;28;20046;-84
2023/01/26 11:53:26;;;;;;;8.97;3.83;;;2.00;99.90;;;;;;5104682;28;20027;-80
2023/01/26 11:55:57;;;;;;;10.33;4.00;;;2.00;99.90;;;;;;5089810;28;20068;-80
2023/01/26 11:58:46;;;;;;;6.30;3.50;;;2.00;99.90;;;;;;5085200;28;20055;-80
2023/01/26 12:01:27;;;;;;;6.93;3.40;;;2.00;99.90;;;;;;5082686;28;20092;-79
2023/01/26 12:03:54;;;;;;;8.13;4.10;;;1.90;99.90;;;;;;5083292;28;20028;-80
2023/01/26 12:06:34;;;;;;;8.03;4.37;;;1.90;99.90;;;;;;5083366;28;20031;-80
2023/01/26 12:09:03;;;;;;;6.90;4.00;;;1.90;99.90;;;;;;5096233;28;20027;-81
2023/01/26 12:11:40;;;;;;;7.00;3.23;;;1.90;99.90;;;;;;5092569;28;20030;-83
2023/01/26 12:14:19;;;;;;;6.30;3.50;;;1.90;99.90;;;;;;5081108;28;20024;-81
2023/01/26 12:16:56;;;;;;;9.23;3.83;;;1.90;99.90;;;;;;5090426;28;20035;-80
2023/01/26 12:20:03;;;;;;;7.10;3.50;;;1.90;99.90;;;;;;5094240;28;20052;-80
2023/01/26 12:22:38;;;;;;;8.00;3.67;;;1.90;99.90;;;;;;5086723;28;20039;-85
2023/01/26 12:25:27;;;;;;;6.40;3.30;;;1.80;99.90;;;;;;5100484;28;20027;-80
2023/01/26 12:28:05;;;;;;;8.27;3.90;;;1.90;99.90;;;;;;5095159;28;20031;-81
2023/01/26 12:30:44;;;;;;;6.20;3.63;;;1.90;99.90;;;;;;5077917;28;20081;-83
2023/01/26 12:33:10;;;;;;;7.60;3.40;;;2.00;99.90;;;;;;5081844;28;20024;-80
2023/01/26 12:36:02;;;;;;;8.13;3.83;;;2.00;99.90;;;;;;5096075;28;20019;-80
2023/01/26 12:38:47;;;;;;;7.45;3.97;;;2.10;99.90;;;;;;5094381;28;20491;-87
2023/01/26 12:41:28;;;;;;;7.40;3.20;;;2.10;99.90;;;;;;5091753;28;20028;-79
2023/01/26 12:44:12;;;;;;;6.80;3.70;;;2.10;99.90;;;;;;5087320;28;20058;-79
2023/01/26 12:46:41;;;;;;;6.23;3.60;;;2.20;99.90;;;;;;5075134;28;20117;-81
2023/01/26 12:49:26;;;;;;;6.83;3.57;;;2.10;99.90;;;;;;5085711;28;20036;-82
2023/01/26 12:52:01;;;;;;;6.83;3.73;;;2.20;99.90;;;;;;5095451;28;20024;-80
2023/01/26 12:54:44;;;;;;;8.13;3.70;;;2.20;99.90;;;;;;5113623;28;20024;-83
2023/01/26 12:57:22;;;;;;;7.57;3.57;;;2.20;99.90;;;;;;5093259;28;20097;-80
2023/01/26 12:59:48;;;;;;;8.03;3.90;;;2.20;99.90;;;;;;5074914;28;20548;-79
2023/01/26 13:02:28;;;;;;;7.30;3.73;;;2.20;99.90;;;;;;5095181;28;20028;-78
2023/01/26 13:05:00;;;;;;;8.40;4.17;;;2.20;99.90;;;;;;5096726;28;20145;-80
2023/01/26 13:07:31;;;;;;;8.40;4.03;;;2.20;99.90;;;;;;5081722;28;20024;-79
2023/01/26 13:10:14;;;;;;;8.95;3.58;;;2.10;99.90;;;;;;5091457;28;20481;-83
2023/01/26 13:12:58;;;;;;;6.50;3.40;;;2.10;99.90;;;;;;5086657;28;20088;-82
2023/01/26 13:15:30;;;;;;;7.30;4.00;;;2.10;99.90;;;;;;5115247;28;20035;-84
2023/01/26 13:18:03;;;;;;;7.53;4.00;;;2.10;99.90;;;;;;5078930;28;20114;-83
2023/01/26 13:20:43;;;;;;;7.83;4.13;;;2.10;99.90;;;;;;5093466;28;20067;-86
2023/01/26 13:23:44;;;;;;;6.17;3.73;;;2.10;99.90;;;;;;5058865;28;20390;-80
2023/01/26 13:26:17;;;;;;;8.43;4.30;;;2.10;99.90;;;;;;5049973;28;20025;-79
2023/01/26 13:28:45;;;;;;;6.90;4.07;;;2.10;99.90;;;;;;5077762;28;20057;-81
2023/01/26 13:31:12;;;;;;;9.00;3.93;;;2.00;99.90;;;;;;5071900;28;20020;-80
2023/01/26 13:33:39;;;;;;;8.43;4.27;;;2.00;99.90;;;;;;5085739;28;20024;-84
2023/01/26 13:36:15;;;;;;;7.83;4.50;;;2.00;99.90;;;;;;5072599;28;20024;-84
2023/01/26 13:38:46;;;;;;;7.20;4.10;;;2.00;99.90;;;;;;5087564;28;20031;-83
2023/01/26 13:41:19;;;;;;;7.37;3.97;;;2.00;99.90;;;;;;5059446;28;20029;-85
2023/01/26 13:44:13;;;;;;;7.63;4.07;;;2.00;99.90;;;;;;5078115;28;20028;-81